sensor_id;sensor_type;location;lat;lon;timestamp;P1;durP1;ratioP1;P2;durP2;ratioP2
70457;SDS011;57919;56.194;95.716;2022-07-06T00:08:01;11.25;;;4.80;;
70457;SDS011;57919;56.194;95.716;2022-07-06T00:18:03;6.97;;;4.00;;
70457;SDS011;57919;56.194;95.716;2022-07-06T00:28:04;11.07;;;3.67;;
70457;SDS011;57919;56.194;95.716;2022-07-06T00:38:07;9.63;;;3.30;;
70457;SDS011;57919;56.194;95.716;2022-07-06T00:48:09;11.70;;;4.23;;
70457;SDS011;57919;56.194;95.716;2022-07-06T00:58:10;9.80;;;3.95;;
70457;SDS011;57919;56.194;95.716;2022-07-06T01:08:13;8.17;;;3.67;;
70457;SDS011;57919;56.194;95.716;2022-07-06T01:18:16;7.87;;;3.50;;
70457;SDS011;57919;56.194;95.716;2022-07-06T01:28:18;7.68;;;3.30;;
70457;SDS011;57919;56.194;95.716;2022-07-06T01:38:20;7.03;;;3.63;;
70457;SDS011;57919;56.194;95.716;2022-07-06T01:48:22;9.40;;;3.78;;
70457;SDS011;57919;56.194;95.716;2022-07-06T01:58:24;7.83;;;3.23;;
70457;SDS011;57919;56.194;95.716;2022-07-06T02:08:27;8.53;;;3.57;;
70457;SDS011;57919;56.194;95.716;2022-07-06T02:18:30;7.07;;;3.40;;
70457;SDS011;57919;56.194;95.716;2022-07-06T02:28:32;8.57;;;3.77;;
70457;SDS011;57919;56.194;95.716;2022-07-06T02:38:34;10.77;;;3.92;;
70457;SDS011;57919;56.194;95.716;2022-07-06T02:48:36;9.03;;;3.40;;
70457;SDS011;57919;56.194;95.716;2022-07-06T02:58:39;8.77;;;3.73;;
70457;SDS011;57919;56.194;95.716;2022-07-06T03:08:42;8.50;;;4.03;;
70457;SDS011;57919;56.194;95.716;2022-07-06T03:18:44;8.93;;;4.27;;
70457;SDS011;57919;56.194;95.716;2022-07-06T03:28:47;8.38;;;4.10;;
70457;SDS011;57919;56.194;95.716;2022-07-06T03:38:49;11.10;;;3.30;;
70457;SDS011;57919;56.194;95.716;2022-07-06T03:48:52;8.07;;;4.03;;
70457;SDS011;57919;56.194;95.716;2022-07-06T03:58:57;11.07;;;3.78;;
70457;SDS011;57919;56.194;95.716;2022-07-06T04:09:07;6.27;;;3.57;;
70457;SDS011;57919;56.194;95.716;2022-07-06T04:19:09;7.82;;;4.13;;
70457;SDS011;57919;56.194;95.716;2022-07-06T04:29:11;7.50;;;4.00;;
70457;SDS011;57919;56.194;95.716;2022-07-06T04:39:13;8.03;;;4.10;;
70457;SDS011;57919;56.194;95.716;2022-07-06T04:49:16;8.15;;;3.88;;
70457;SDS011;57919;56.194;95.716;2022-07-06T04:59:18;8.00;;;4.10;;
70457;SDS011;57919;56.194;95.716;2022-07-06T05:09:21;8.05;;;4.47;;
70457;SDS011;57919;56.194;95.716;2022-07-06T05:19:24;9.43;;;4.40;;
70457;SDS011;57919;56.194;95.716;2022-07-06T05:29:26;11.17;;;6.03;;
70457;SDS011;57919;56.194;95.716;2022-07-06T05:39:29;12.23;;;4.72;;
70457;SDS011;57919;56.194;95.716;2022-07-06T05:49:31;9.33;;;6.03;;
70457;SDS011;57919;56.194;95.716;2022-07-06T05:59:51;12.27;;;5.20;;
70457;SDS011;57919;56.194;95.716;2022-07-06T06:09:54;11.73;;;4.13;;
70457;SDS011;57919;56.194;95.716;2022-07-06T06:19:56;6.70;;;4.33;;
70457;SDS011;57919;56.194;95.716;2022-07-06T06:29:58;19.33;;;6.03;;
70457;SDS011;57919;56.194;95.716;2022-07-06T06:40:01;7.67;;;5.43;;
70457;SDS011;57919;56.194;95.716;2022-07-06T06:50:04;11.57;;;6.03;;
70457;SDS011;57919;56.194;95.716;2022-07-06T07:00:06;11.40;;;5.37;;
70457;SDS011;57919;56.194;95.716;2022-07-06T07:10:09;14.40;;;5.73;;
70457;SDS011;57919;56.194;95.716;2022-07-06T07:20:11;11.32;;;6.00;;
70457;SDS011;57919;56.194;95.716;2022-07-06T07:30:14;10.57;;;7.17;;
70457;SDS011;57919;56.194;95.716;2022-07-06T07:40:16;8.93;;;5.63;;
70457;SDS011;57919;56.194;95.716;2022-07-06T07:50:18;10.63;;;5.77;;
70457;SDS011;57919;56.194;95.716;2022-07-06T08:00:20;29.63;;;6.90;;
70457;SDS011;57919;56.194;95.716;2022-07-06T08:10:23;7.90;;;3.35;;
70457;SDS011;57919;56.194;95.716;2022-07-06T08:20:24;8.47;;;4.00;;
70457;SDS011;57919;56.194;95.716;2022-07-06T08:30:26;12.32;;;4.10;;
70457;SDS011;57919;56.194;95.716;2022-07-06T08:40:31;25.73;;;5.53;;
70457;SDS011;57919;56.194;95.716;2022-07-06T08:50:37;17.27;;;6.23;;
70457;SDS011;57919;56.194;95.716;2022-07-06T09:00:39;13.02;;;5.88;;
70457;SDS011;57919;56.194;95.716;2022-07-06T09:10:42;9.23;;;5.37;;
70457;SDS011;57919;56.194;95.716;2022-07-06T09:20:44;14.68;;;7.10;;
70457;SDS011;57919;56.194;95.716;2022-07-06T09:30:46;15.70;;;6.63;;
70457;SDS011;57919;56.194;95.716;2022-07-06T09:40:48;9.63;;;5.57;;
70457;SDS011;57919;56.194;95.716;2022-07-06T09:50:52;17.85;;;6.20;;
70457;SDS011;57919;56.194;95.716;2022-07-06T10:00:55;9.93;;;5.40;;
70457;SDS011;57919;56.194;95.716;2022-07-06T10:10:59;11.45;;;5.60;;
70457;SDS011;57919;56.194;95.716;2022-07-06T10:21:02;11.97;;;7.17;;
70457;SDS011;57919;56.194;95.716;2022-07-06T10:31:04;15.10;;;8.60;;
70457;SDS011;57919;56.194;95.716;2022-07-06T10:41:08;12.25;;;6.82;;
70457;SDS011;57919;56.194;95.716;2022-07-06T10:51:11;10.20;;;5.67;;
70457;SDS011;57919;56.194;95.716;2022-07-06T11:01:15;12.02;;;6.57;;
70457;SDS011;57919;56.194;95.716;2022-07-06T11:11:18;14.20;;;5.80;;
70457;SDS011;57919;56.194;95.716;2022-07-06T11:21:22;10.20;;;5.13;;
70457;SDS011;57919;56.194;95.716;2022-07-06T11:31:33;10.00;;;5.13;;
70457;SDS011;57919;56.194;95.716;2022-07-06T11:41:40;15.63;;;7.53;;
70457;SDS011;57919;56.194;95.716;2022-07-06T11:51:45;8.57;;;3.90;;
70457;SDS011;57919;56.194;95.716;2022-07-06T12:01:48;12.27;;;4.13;;
70457;SDS011;57919;56.194;95.716;2022-07-06T12:11:50;10.47;;;4.07;;
70457;SDS011;57919;56.194;95.716;2022-07-06T12:21:52;7.88;;;3.80;;
70457;SDS011;57919;56.194;95.716;2022-07-06T12:31:55;11.63;;;4.80;;
70457;SDS011;57919;56.194;95.716;2022-07-06T12:42:01;24.42;;;14.40;;
70457;SDS011;57919;56.194;95.716;2022-07-06T13:02:08;8.40;;;4.20;;
70457;SDS011;57919;56.194;95.716;2022-07-06T13:12:18;9.13;;;4.93;;
70457;SDS011;57919;56.194;95.716;2022-07-06T13:22:21;7.67;;;3.00;;
70457;SDS011;57919;56.194;95.716;2022-07-06T13:32:22;9.60;;;4.63;;
70457;SDS011;57919;56.194;95.716;2022-07-06T13:42:24;12.43;;;4.70;;
70457;SDS011;57919;56.194;95.716;2022-07-06T13:52:26;7.63;;;2.77;;
70457;SDS011;57919;56.194;95.716;2022-07-06T14:02:28;13.30;;;7.07;;
70457;SDS011;57919;56.194;95.716;2022-07-06T14:12:30;9.00;;;4.47;;
70457;SDS011;57919;56.194;95.716;2022-07-06T14:22:32;15.32;;;9.05;;
70457;SDS011;57919;56.194;95.716;2022-07-06T14:32:34;5.47;;;1.93;;
70457;SDS011;57919;56.194;95.716;2022-07-06T14:42:36;4.87;;;1.60;;
70457;SDS011;57919;56.194;95.716;2022-07-06T14:52:38;4.43;;;1.40;;
70457;SDS011;57919;56.194;95.716;2022-07-06T15:02:40;8.63;;;3.80;;
70457;SDS011;57919;56.194;95.716;2022-07-06T15:12:43;10.20;;;2.53;;
70457;SDS011;57919;56.194;95.716;2022-07-06T15:22:46;5.43;;;1.53;;
70457;SDS011;57919;56.194;95.716;2022-07-06T15:32:47;4.50;;;1.00;;
70457;SDS011;57919;56.194;95.716;2022-07-06T15:42:50;2.88;;;0.80;;
70457;SDS011;57919;56.194;95.716;2022-07-06T15:52:55;5.47;;;1.00;;
70457;SDS011;57919;56.194;95.716;2022-07-06T16:02:57;7.70;;;2.85;;
70457;SDS011;57919;56.194;95.716;2022-07-06T16:12:59;6.67;;;2.70;;
70457;SDS011;57919;56.194;95.716;2022-07-06T16:23:01;7.87;;;2.10;;
70457;SDS011;57919;56.194;95.716;2022-07-06T16:33:03;6.50;;;2.80;;
70457;SDS011;57919;56.194;95.716;2022-07-06T16:43:05;6.33;;;2.77;;
70457;SDS011;57919;56.194;95.716;2022-07-06T16:53:08;3.88;;;1.30;;
70457;SDS011;57919;56.194;95.716;2022-07-06T17:03:10;3.60;;;1.00;;
70457;SDS011;57919;56.194;95.716;2022-07-06T17:13:11;8.77;;;1.10;;
70457;SDS011;57919;56.194;95.716;2022-07-06T17:23:14;6.50;;;2.15;;
70457;SDS011;57919;56.194;95.716;2022-07-06T17:33:16;3.97;;;1.27;;
70457;SDS011;57919;56.194;95.716;2022-07-06T17:43:18;7.10;;;2.33;;
70457;SDS011;57919;56.194;95.716;2022-07-06T17:53:20;5.33;;;1.83;;
70457;SDS011;57919;56.194;95.716;2022-07-06T18:03:22;7.17;;;1.40;;
70457;SDS011;57919;56.194;95.716;2022-07-06T18:13:25;11.80;;;1.92;;
70457;SDS011;57919;56.194;95.716;2022-07-06T18:23:27;7.07;;;1.50;;
70457;SDS011;57919;56.194;95.716;2022-07-06T18:33:30;7.32;;;2.10;;
70457;SDS011;57919;56.194;95.716;2022-07-06T18:43:32;4.70;;;1.30;;
70457;SDS011;57919;56.194;95.716;2022-07-06T18:53:34;5.03;;;1.40;;
70457;SDS011;57919;56.194;95.716;2022-07-06T19:03:36;4.28;;;1.38;;
70457;SDS011;57919;56.194;95.716;2022-07-06T19:13:38;9.10;;;1.70;;
70457;SDS011;57919;56.194;95.716;2022-07-06T19:23:41;5.78;;;1.50;;
70457;SDS011;57919;56.194;95.716;2022-07-06T19:33:43;5.60;;;2.70;;
70457;SDS011;57919;56.194;95.716;2022-07-06T19:43:44;5.17;;;2.00;;
70457;SDS011;57919;56.194;95.716;2022-07-06T19:53:47;6.25;;;2.10;;
70457;SDS011;57919;56.194;95.716;2022-07-06T20:03:52;7.23;;;2.40;;
70457;SDS011;57919;56.194;95.716;2022-07-06T20:13:54;5.07;;;1.83;;
70457;SDS011;57919;56.194;95.716;2022-07-06T20:23:56;7.37;;;2.33;;
70457;SDS011;57919;56.194;95.716;2022-07-06T20:33:58;7.00;;;1.90;;
70457;SDS011;57919;56.194;95.716;2022-07-06T20:44:00;4.63;;;1.50;;
70457;SDS011;57919;56.194;95.716;2022-07-06T20:54:02;5.20;;;1.90;;
70457;SDS011;57919;56.194;95.716;2022-07-06T21:04:04;5.20;;;1.98;;
70457;SDS011;57919;56.194;95.716;2022-07-06T21:14:05;8.10;;;2.23;;
70457;SDS011;57919;56.194;95.716;2022-07-06T21:24:08;7.77;;;2.10;;
70457;SDS011;57919;56.194;95.716;2022-07-06T21:34:10;6.93;;;2.38;;
70457;SDS011;57919;56.194;95.716;2022-07-06T21:44:11;11.97;;;2.20;;
70457;SDS011;57919;56.194;95.716;2022-07-06T21:54:14;8.02;;;2.30;;
70457;SDS011;57919;56.194;95.716;2022-07-06T22:04:16;4.60;;;1.83;;
70457;SDS011;57919;56.194;95.716;2022-07-06T22:14:17;4.83;;;1.83;;
70457;SDS011;57919;56.194;95.716;2022-07-06T22:24:20;6.07;;;2.08;;
70457;SDS011;57919;56.194;95.716;2022-07-06T22:34:22;7.30;;;1.80;;
70457;SDS011;57919;56.194;95.716;2022-07-06T22:44:24;8.18;;;2.35;;
70457;SDS011;57919;56.194;95.716;2022-07-06T22:54:26;7.57;;;2.33;;
70457;SDS011;57919;56.194;95.716;2022-07-06T23:04:28;5.87;;;1.57;;
70457;SDS011;57919;56.194;95.716;2022-07-06T23:14:29;8.27;;;2.88;;
70457;SDS011;57919;56.194;95.716;2022-07-06T23:24:32;7.27;;;3.20;;
70457;SDS011;57919;56.194;95.716;2022-07-06T23:34:34;7.55;;;2.75;;
70457;SDS011;57919;56.194;95.716;2022-07-06T23:44:35;5.53;;;1.70;;
70457;SDS011;57919;56.194;95.716;2022-07-06T23:54:38;5.77;;;1.67;;
